Lexington, NC (27292)

10:26 AM EDT on August 21, 2014 (GMT -0400)
Davidson County | Change Station
CLOSE
Current Station
Airport
Location: Lexington,
Elevation: 732 ft
Nearby Weather Stations

Elev 732 ft 35.78 °N, 80.30 °W | Updated 11 minutes ago

Clear
Clear
82 °F
Feels Like 85 °F
N
4
Wind Variable Wind from NW

Today
High -- | Low -- °F
--% Chance of Precip.
Yesterday
High -- | Low -- °F
Precip. -- in
6:44 AM 8:03 PM
Waning Crescent, 14% visible
Pressure 30.12 in
Visibility 10.0 miles
Clouds Clear
Heat Index 85 °F
Dew Point 68 °F
Humidity 64%
Rainfall 0.00 in
Snow Depth Not available.
UV 5 out of 12
Pollen 9.00 out of 12
Ozone Good
PM2.5 Good
Flu Activity Not available.
METAR KEXX 211415Z AUTO 32003KT 10SM CLR 28/20 A3012 RMK AO2 T02760202

More Conditions Fewer Conditions

Pressure 30.12 in
Visibility 10.0 miles
Clouds Clear
Heat Index 85 °F
Dew Point 68 °F
Humidity 64%
Rainfall 0.00 in
Snow Depth Not available.
UV 5 out of 12
Pollen 9.00 out of 12
Ozone Good
PM2.5 Good
Flu Activity Not available.
METAR KEXX 211415Z AUTO 32003KT 10SM CLR 28/20 A3012 RMK AO2 T02760202

More Conditions Fewer Conditions

10-Day Weather Forecast

Almanac

Astronomy

Aug. 21, 2014 Rise Set
Actual Time 6:44 AM EDT 8:03 PM EDT
Civil Twilight 6:17 AM EDT 8:29 PM EDT
Nautical Twilight 5:45 AM EDT 9:01 PM EDT
Astronomical Twilight 5:12 AM EDT 9:35 PM EDT
Moon 3:16 AM EDT 5:28 PM EDT
Length of Visible Light 14h 12m
Length of Day
13h 18m
Tomorrow will be 2m 5s shorter.
Waning Crescent, 14% of the Moon is Illuminated
Today
Waning Crescent
Aug 25
New
Sep 2
First Quarter
Sep 8
Full
Sep 15
Last Quarter

Today's Extremes

State Highs State Lows

Community

WunderPhotos

Upload Photos

1,745,920 photos uploaded!

WunderBlogs® & News

By Dr. Jeff Masters
Director of Meteorology, Weather Underground
By Kari Strenfel
Meteorologist, Weather Underground
By Christopher C. Burt
Weather Historian, Weather Underground
August 21, 2014
August 21, 2014
August 21, 2014

Nearby

Air Quality

  Air Quality AQ Index Pollutant
Yesterday Good
PM2.5
Yesterday Good
OZONE
Current Good
PM2.5
Current Good
OZONE
Thursday Moderate
OZONE
Thursday Moderate
PM2.5
Friday Moderate
PM2.5
Friday Moderate
OZONE
Saturday Good
PM2.5
Saturday Good
OZONE

Snow Depth

Station Depth Elevation
No new snow has been reported.

Earthquake Activity

City Distance Mag. Time & Date
No recent earthquake activity has been reported nearby.
Minimum magnitude displayed is 2.5.

Coastal Water Temperatures

Place Temperature
No Stations Reporting

Nearby Weather Stations